AXX256 KLGB-KIND
Flight info
| Callsign | AXX256 |
|---|---|
| Flight time | N/A |
| Altitude | 37000 |
| Route | ZOOMM3 BEALE J146 DICEE OATHE/N0438F390 USIRE KOLTS2 |
| Aircraft | E35L/M-SDFGIRWXY/SB1 |
Departure
| Time | 2026-04-30 12:35 |
|---|---|
| Airport | Long Beach International Airport (KLGB) |
Arrival
| Time | N/A |
|---|---|
| Airport | Indianapolis International Airport (KIND) |
| Time | Latitude | Longitude | Altitude | Speed | Heading |
|---|---|---|---|---|---|
| 2026-04-30 11:57 | 33.81227 | -118.14925 | 42 ft | 0 kts | 180° |
| 2026-04-30 12:26 | 33.81238 | -118.14925 | 41 ft | 2 kts | 180° |
| 2026-04-30 12:27 | 33.81253 | -118.14925 | 41 ft | 2 kts | 180° |
| 2026-04-30 12:27 | 33.81268 | -118.14925 | 41 ft | 2 kts | 180° |
| 2026-04-30 12:27 | 33.81283 | -118.14925 | 41 ft | 2 kts | 180° |
| 2026-04-30 12:27 | 33.81292 | -118.14925 | 41 ft | 2 kts | 169° |
| 2026-04-30 12:28 | 33.81305 | -118.14934 | 41 ft | 2 kts | 123° |
| 2026-04-30 12:28 | 33.81308 | -118.14948 | 41 ft | 1 kts | 89° |
| 2026-04-30 12:28 | 33.81308 | -118.14951 | 42 ft | 0 kts | 89° |
| 2026-04-30 12:30 | 33.81309 | -118.14943 | 41 ft | 2 kts | 89° |
| 2026-04-30 12:30 | 33.81309 | -118.14899 | 41 ft | 7 kts | 89° |
| 2026-04-30 12:30 | 33.81310 | -118.14825 | 40 ft | 10 kts | 90° |
| 2026-04-30 12:30 | 33.81288 | -118.14730 | 40 ft | 13 kts | 129° |
| 2026-04-30 12:31 | 33.81215 | -118.14631 | 38 ft | 18 kts | 131° |
| 2026-04-30 12:31 | 33.81122 | -118.14507 | 37 ft | 21 kts | 133° |
| 2026-04-30 12:31 | 33.81010 | -118.14377 | 35 ft | 22 kts | 133° |
| 2026-04-30 12:31 | 33.80905 | -118.14248 | 34 ft | 21 kts | 136° |
| 2026-04-30 12:32 | 33.80797 | -118.14113 | 32 ft | 23 kts | 134° |
| 2026-04-30 12:32 | 33.80691 | -118.13984 | 32 ft | 18 kts | 134° |
| 2026-04-30 12:32 | 33.80648 | -118.13919 | 31 ft | 0 kts | 107° |
| 2026-04-30 12:33 | 33.80646 | -118.13905 | 31 ft | 3 kts | 91° |
| 2026-04-30 12:34 | 33.80661 | -118.13866 | 31 ft | 6 kts | 51° |
| 2026-04-30 12:34 | 33.80711 | -118.13850 | 31 ft | 9 kts | 332° |
| 2026-04-30 12:34 | 33.80725 | -118.13864 | 31 ft | 0 kts | 315° |
| 2026-04-30 12:34 | 33.80859 | -118.14027 | 32 ft | 70 kts | 314° |
| 2026-04-30 12:35 | 33.81381 | -118.14664 | 41 ft | 141 kts | 314° |
| 2026-04-30 12:35 | 33.82155 | -118.15595 | 342 ft | 166 kts | 316° |
| 2026-04-30 12:35 | 33.83043 | -118.16609 | 856 ft | 191 kts | 316° |
| 2026-04-30 12:35 | 33.84026 | -118.17841 | 1328 ft | 228 kts | 312° |
| 2026-04-30 12:36 | 33.85136 | -118.19385 | 2046 ft | 252 kts | 302° |
| 2026-04-30 12:36 | 33.85609 | -118.21355 | 3219 ft | 254 kts | 268° |
| 2026-04-30 12:36 | 33.85094 | -118.23354 | 4340 ft | 258 kts | 235° |
| 2026-04-30 12:36 | 33.83744 | -118.24719 | 5384 ft | 263 kts | 203° |
| 2026-04-30 12:37 | 33.81966 | -118.25256 | 6430 ft | 268 kts | 191° |
| 2026-04-30 12:37 | 33.80109 | -118.25445 | 7418 ft | 274 kts | 171° |
| 2026-04-30 12:37 | 33.78371 | -118.24562 | 8356 ft | 280 kts | 141° |
| 2026-04-30 12:37 | 33.77202 | -118.22724 | 9213 ft | 287 kts | 111° |
| 2026-04-30 12:38 | 33.76915 | -118.20368 | 10018 ft | 294 kts | 82° |
| 2026-04-30 12:38 | 33.77583 | -118.18044 | 10847 ft | 300 kts | 62° |
| 2026-04-30 12:38 | 33.78553 | -118.15835 | 11623 ft | 307 kts | 62° |
| 2026-04-30 12:38 | 33.79573 | -118.13528 | 12367 ft | 315 kts | 62° |
| 2026-04-30 12:39 | 33.80617 | -118.11195 | 13118 ft | 323 kts | 60° |
| 2026-04-30 12:39 | 33.81994 | -118.09043 | 13852 ft | 331 kts | 52° |
| 2026-04-30 12:39 | 33.83360 | -118.06805 | 14625 ft | 338 kts | 54° |
| 2026-04-30 12:39 | 33.84724 | -118.04507 | 15481 ft | 342 kts | 55° |
| 2026-04-30 12:40 | 33.86161 | -118.02070 | 15663 ft | 369 kts | 55° |
| 2026-04-30 12:40 | 33.87704 | -117.99451 | 15738 ft | 396 kts | 55° |
| 2026-04-30 12:40 | 33.89323 | -117.96702 | 16173 ft | 409 kts | 55° |
| 2026-04-30 12:40 | 33.91094 | -117.94119 | 17212 ft | 403 kts | 43° |
| 2026-04-30 12:41 | 33.93300 | -117.92046 | 17968 ft | 405 kts | 37° |
| 2026-04-30 12:41 | 33.95580 | -117.89989 | 18555 ft | 412 kts | 34° |
| 2026-04-30 12:41 | 33.97944 | -117.88021 | 19142 ft | 416 kts | 41° |
| 2026-04-30 12:41 | 34.00155 | -117.85767 | 19742 ft | 421 kts | 37° |
| 2026-04-30 12:42 | 34.02488 | -117.83642 | 20362 ft | 424 kts | 38° |
| 2026-04-30 12:42 | 34.04835 | -117.81493 | 21017 ft | 426 kts | 38° |
| 2026-04-30 12:42 | 34.07198 | -117.79327 | 21643 ft | 428 kts | 38° |
| 2026-04-30 12:42 | 34.09439 | -117.76986 | 22223 ft | 430 kts | 49° |
| 2026-04-30 12:43 | 34.11348 | -117.74177 | 22823 ft | 431 kts | 51° |
| 2026-04-30 12:43 | 34.13245 | -117.71369 | 23407 ft | 433 kts | 51° |
| 2026-04-30 12:43 | 34.15147 | -117.68552 | 23975 ft | 435 kts | 51° |
| 2026-04-30 12:43 | 34.17057 | -117.65719 | 24549 ft | 437 kts | 51° |
| 2026-04-30 12:44 | 34.18968 | -117.62882 | 25091 ft | 441 kts | 51° |
| 2026-04-30 12:44 | 34.20903 | -117.60004 | 25583 ft | 445 kts | 51° |
| 2026-04-30 12:44 | 34.22863 | -117.57090 | 26189 ft | 446 kts | 51° |
| 2026-04-30 12:44 | 34.24797 | -117.54209 | 26830 ft | 445 kts | 51° |
| 2026-04-30 12:45 | 34.26754 | -117.51292 | 27451 ft | 445 kts | 51° |
| 2026-04-30 12:45 | 34.28682 | -117.48418 | 28017 ft | 447 kts | 51° |
| 2026-04-30 12:45 | 34.30644 | -117.45489 | 28597 ft | 448 kts | 51° |
| 2026-04-30 12:45 | 34.32607 | -117.42557 | 29210 ft | 450 kts | 51° |
| 2026-04-30 12:46 | 34.34566 | -117.39628 | 29815 ft | 451 kts | 51° |
| 2026-04-30 12:46 | 34.36552 | -117.36657 | 30401 ft | 453 kts | 51° |
| 2026-04-30 12:46 | 34.38548 | -117.33666 | 30619 ft | 466 kts | 52° |
| 2026-04-30 12:46 | 34.40644 | -117.30525 | 30803 ft | 480 kts | 52° |
| 2026-04-30 12:47 | 34.42760 | -117.27351 | 31178 ft | 485 kts | 52° |
| 2026-04-30 12:47 | 34.44862 | -117.24192 | 31669 ft | 486 kts | 52° |
| 2026-04-30 12:47 | 34.46989 | -117.20997 | 32135 ft | 489 kts | 52° |
| 2026-04-30 12:47 | 34.49103 | -117.17815 | 32568 ft | 492 kts | 52° |
| 2026-04-30 12:48 | 34.51287 | -117.14532 | 33035 ft | 495 kts | 52° |
| 2026-04-30 12:48 | 34.53421 | -117.11317 | 33462 ft | 498 kts | 52° |
| 2026-04-30 12:48 | 34.55622 | -117.08062 | 33901 ft | 502 kts | 51° |
| 2026-04-30 12:48 | 34.57875 | -117.04796 | 34366 ft | 506 kts | 51° |
| 2026-04-30 12:49 | 34.60126 | -117.01517 | 34857 ft | 508 kts | 51° |
| 2026-04-30 12:49 | 34.62387 | -116.98224 | 35421 ft | 507 kts | 51° |
| 2026-04-30 12:49 | 34.64637 | -116.94941 | 35974 ft | 507 kts | 51° |
| 2026-04-30 12:49 | 34.66880 | -116.91665 | 36470 ft | 508 kts | 51° |
| 2026-04-30 12:50 | 34.69139 | -116.88364 | 36962 ft | 510 kts | 51° |
| 2026-04-30 12:50 | 34.71433 | -116.85008 | 37124 ft | 520 kts | 51° |
| 2026-04-30 12:50 | 34.76015 | -116.78295 | 37061 ft | 516 kts | 50° |
| 2026-04-30 12:51 | 34.80540 | -116.71653 | 36995 ft | 508 kts | 50° |
| 2026-04-30 12:51 | 34.85009 | -116.65081 | 37050 ft | 504 kts | 50° |
| 2026-04-30 12:52 | 34.89719 | -116.58733 | 37015 ft | 505 kts | 47° |
| 2026-04-30 12:52 | 34.94436 | -116.52436 | 37000 ft | 506 kts | 47° |
| 2026-04-30 12:53 | 34.99182 | -116.46081 | 36997 ft | 507 kts | 47° |
| 2026-04-30 12:53 | 35.03914 | -116.39734 | 36995 ft | 508 kts | 46° |
| 2026-04-30 12:54 | 35.08656 | -116.33360 | 36989 ft | 509 kts | 47° |
| 2026-04-30 12:54 | 35.13448 | -116.26909 | 36974 ft | 509 kts | 47° |
| 2026-04-30 12:55 | 35.18168 | -116.20541 | 36973 ft | 508 kts | 47° |
| 2026-04-30 12:55 | 35.22906 | -116.14136 | 36973 ft | 508 kts | 47° |
| 2026-04-30 12:56 | 35.27648 | -116.07717 | 36970 ft | 508 kts | 47° |
| 2026-04-30 12:56 | 35.32355 | -116.01330 | 36968 ft | 508 kts | 46° |
| 2026-04-30 12:57 | 35.37074 | -115.94917 | 36976 ft | 507 kts | 46° |
| 2026-04-30 12:57 | 35.41759 | -115.88537 | 36999 ft | 506 kts | 46° |
| 2026-04-30 12:58 | 35.46460 | -115.82124 | 37018 ft | 506 kts | 46° |
| 2026-04-30 12:58 | 35.51171 | -115.75684 | 36991 ft | 508 kts | 46° |
| 2026-04-30 12:59 | 35.55887 | -115.69226 | 36962 ft | 509 kts | 45° |
| 2026-04-30 12:59 | 35.60624 | -115.62727 | 36913 ft | 511 kts | 46° |
| 2026-04-30 13:00 | 35.65373 | -115.56198 | 36832 ft | 514 kts | 45° |
| 2026-04-30 13:00 | 35.70133 | -115.49641 | 36714 ft | 517 kts | 45° |
| 2026-04-30 13:01 | 35.74883 | -115.43083 | 36741 ft | 515 kts | 45° |
| 2026-04-30 13:01 | 35.79623 | -115.36526 | 36862 ft | 510 kts | 45° |
| 2026-04-30 13:02 | 35.84340 | -115.29990 | 37003 ft | 508 kts | 46° |
| 2026-04-30 13:02 | 35.89003 | -115.23516 | 37030 ft | 509 kts | 46° |
| 2026-04-30 13:03 | 35.93704 | -115.16976 | 37015 ft | 510 kts | 46° |
| 2026-04-30 13:03 | 35.98399 | -115.10431 | 37015 ft | 511 kts | 46° |
| 2026-04-30 13:04 | 36.03101 | -115.03863 | 37006 ft | 512 kts | 46° |
| 2026-04-30 13:04 | 36.07791 | -114.97300 | 37003 ft | 512 kts | 45° |
| 2026-04-30 13:05 | 36.12508 | -114.90685 | 36994 ft | 513 kts | 45° |
| 2026-04-30 13:06 | 36.18928 | -114.80138 | 36983 ft | 518 kts | 61° |
| 2026-04-30 13:06 | 36.21574 | -114.71849 | 36983 ft | 519 kts | 69° |
| 2026-04-30 13:07 | 36.24113 | -114.63461 | 36977 ft | 520 kts | 68° |
| 2026-04-30 13:07 | 36.26643 | -114.55148 | 36976 ft | 521 kts | 68° |
| 2026-04-30 13:08 | 36.29199 | -114.46732 | 36976 ft | 521 kts | 68° |
| 2026-04-30 13:08 | 36.31726 | -114.38387 | 36986 ft | 522 kts | 68° |
| 2026-04-30 13:09 | 36.34278 | -114.29934 | 36983 ft | 523 kts | 69° |
| 2026-04-30 13:09 | 36.36805 | -114.21538 | 36988 ft | 523 kts | 69° |
| 2026-04-30 13:10 | 36.39346 | -114.13071 | 36992 ft | 523 kts | 69° |
| 2026-04-30 13:10 | 36.41878 | -114.04609 | 36998 ft | 524 kts | 69° |
| 2026-04-30 13:11 | 36.44400 | -113.96155 | 37008 ft | 524 kts | 69° |
| 2026-04-30 13:11 | 36.46915 | -113.87698 | 36997 ft | 525 kts | 69° |
| 2026-04-30 13:12 | 36.49431 | -113.79214 | 37030 ft | 525 kts | 69° |
| 2026-04-30 13:12 | 36.51942 | -113.70720 | 37055 ft | 524 kts | 69° |
| 2026-04-30 13:13 | 36.55673 | -113.58048 | 37102 ft | 524 kts | 69° |
| 2026-04-30 13:14 | 36.59423 | -113.45257 | 37130 ft | 526 kts | 68° |
| 2026-04-30 13:14 | 36.63156 | -113.32462 | 37162 ft | 526 kts | 69° |
| 2026-04-30 13:15 | 36.66878 | -113.19625 | 37169 ft | 526 kts | 69° |
| 2026-04-30 13:16 | 36.69344 | -113.11089 | 37158 ft | 526 kts | 69° |
| 2026-04-30 13:16 | 36.71795 | -113.02579 | 37130 ft | 527 kts | 69° |
| 2026-04-30 13:17 | 36.75497 | -112.89672 | 37109 ft | 527 kts | 69° |
| 2026-04-30 13:18 | 36.79169 | -112.76811 | 37127 ft | 527 kts | 68° |
| 2026-04-30 13:18 | 36.82843 | -112.63879 | 37140 ft | 527 kts | 68° |
| 2026-04-30 13:19 | 36.85264 | -112.55327 | 37148 ft | 528 kts | 68° |
| 2026-04-30 13:19 | 36.87701 | -112.46687 | 37153 ft | 528 kts | 68° |
| 2026-04-30 13:20 | 36.90134 | -112.38015 | 37172 ft | 529 kts | 68° |
| 2026-04-30 13:20 | 36.92564 | -112.29342 | 37172 ft | 529 kts | 69° |
| 2026-04-30 13:21 | 36.94979 | -112.20712 | 37163 ft | 529 kts | 69° |
| 2026-04-30 13:22 | 36.98602 | -112.07709 | 37128 ft | 529 kts | 69° |
| 2026-04-30 13:22 | 37.02204 | -111.94715 | 37123 ft | 529 kts | 69° |
| 2026-04-30 13:23 | 37.05780 | -111.81756 | 37123 ft | 528 kts | 69° |
| 2026-04-30 13:24 | 37.10554 | -111.64355 | 37121 ft | 529 kts | 68° |
| 2026-04-30 13:25 | 37.15306 | -111.46918 | 37105 ft | 530 kts | 68° |
| 2026-04-30 13:26 | 37.21222 | -111.25047 | 37067 ft | 531 kts | 69° |
| 2026-04-30 13:28 | 37.26174 | -111.02808 | 37094 ft | 530 kts | 73° |
| 2026-04-30 13:28 | 37.29033 | -110.89492 | 37106 ft | 530 kts | 73° |
| 2026-04-30 13:29 | 37.32838 | -110.71652 | 37093 ft | 531 kts | 73° |
| 2026-04-30 13:31 | 37.37568 | -110.49270 | 37089 ft | 533 kts | 73° |
| 2026-04-30 13:32 | 37.42263 | -110.26824 | 37130 ft | 532 kts | 74° |
| 2026-04-30 13:33 | 37.45988 | -110.08850 | 37163 ft | 531 kts | 74° |
| 2026-04-30 13:34 | 37.48747 | -109.95438 | 37176 ft | 532 kts | 74° |
| 2026-04-30 13:35 | 37.52425 | -109.77428 | 37164 ft | 535 kts | 74° |
| 2026-04-30 13:36 | 37.56104 | -109.59264 | 37105 ft | 539 kts | 74° |
| 2026-04-30 13:36 | 37.58865 | -109.45525 | 37104 ft | 541 kts | 74° |
| 2026-04-30 13:37 | 37.61624 | -109.31709 | 37083 ft | 544 kts | 75° |
| 2026-04-30 13:38 | 37.64365 | -109.17889 | 37082 ft | 544 kts | 75° |
| 2026-04-30 13:39 | 37.67996 | -108.99444 | 37126 ft | 543 kts | 75° |
| 2026-04-30 13:40 | 37.70708 | -108.85561 | 37162 ft | 544 kts | 75° |
| 2026-04-30 13:40 | 37.72500 | -108.76331 | 37177 ft | 544 kts | 75° |
| 2026-04-30 13:41 | 37.74298 | -108.67031 | 37192 ft | 545 kts | 75° |
| 2026-04-30 13:41 | 37.76077 | -108.57788 | 37224 ft | 545 kts | 75° |
| 2026-04-30 13:42 | 37.77863 | -108.48467 | 37249 ft | 546 kts | 75° |
| 2026-04-30 13:42 | 37.80518 | -108.34530 | 37283 ft | 547 kts | 75° |
| 2026-04-30 13:43 | 37.82288 | -108.25182 | 37281 ft | 547 kts | 75° |
| 2026-04-30 13:43 | 37.84047 | -108.15851 | 37301 ft | 547 kts | 75° |
| 2026-04-30 13:44 | 37.85791 | -108.06554 | 37280 ft | 547 kts | 75° |
| 2026-04-30 13:44 | 37.87548 | -107.97147 | 37239 ft | 549 kts | 75° |
| 2026-04-30 13:45 | 37.90154 | -107.83111 | 37296 ft | 547 kts | 75° |
| 2026-04-30 13:46 | 37.91878 | -107.73766 | 37371 ft | 546 kts | 75° |
| 2026-04-30 13:46 | 37.93591 | -107.64442 | 37397 ft | 547 kts | 75° |
| 2026-04-30 13:47 | 37.95298 | -107.55103 | 37407 ft | 548 kts | 75° |
| 2026-04-30 13:47 | 37.97010 | -107.45693 | 37431 ft | 549 kts | 75° |
| 2026-04-30 13:48 | 37.98708 | -107.36315 | 37415 ft | 551 kts | 75° |
| 2026-04-30 13:48 | 38.00422 | -107.26804 | 37362 ft | 553 kts | 76° |
| 2026-04-30 13:49 | 38.02116 | -107.17350 | 37348 ft | 553 kts | 76° |
| 2026-04-30 13:49 | 38.03802 | -107.07899 | 37397 ft | 550 kts | 76° |
| 2026-04-30 13:50 | 38.05474 | -106.98483 | 37457 ft | 548 kts | 76° |
| 2026-04-30 13:50 | 38.07970 | -106.84334 | 37368 ft | 552 kts | 76° |
| 2026-04-30 13:51 | 38.09631 | -106.74860 | 37305 ft | 554 kts | 76° |
| 2026-04-30 13:51 | 38.11298 | -106.65300 | 37283 ft | 554 kts | 76° |
| 2026-04-30 13:52 | 38.12954 | -106.55757 | 37286 ft | 554 kts | 76° |
| 2026-04-30 13:52 | 38.14587 | -106.46300 | 37293 ft | 552 kts | 76° |
| 2026-04-30 13:53 | 38.16216 | -106.36813 | 37306 ft | 550 kts | 76° |
| 2026-04-30 13:53 | 38.17833 | -106.27357 | 37308 ft | 548 kts | 77° |
| 2026-04-30 13:54 | 38.19443 | -106.17886 | 37308 ft | 546 kts | 77° |
| 2026-04-30 13:54 | 38.21029 | -106.08505 | 37274 ft | 546 kts | 77° |
| 2026-04-30 13:55 | 38.22605 | -105.99141 | 37232 ft | 546 kts | 77° |
| 2026-04-30 13:55 | 38.24184 | -105.89711 | 37269 ft | 544 kts | 77° |
| 2026-04-30 13:56 | 38.25743 | -105.80347 | 37312 ft | 542 kts | 77° |
| 2026-04-30 13:56 | 38.27290 | -105.71011 | 37215 ft | 544 kts | 77° |
| 2026-04-30 13:57 | 38.28832 | -105.61652 | 37318 ft | 541 kts | 77° |
| 2026-04-30 13:57 | 38.30364 | -105.52305 | 37262 ft | 543 kts | 77° |
| 2026-04-30 13:58 | 38.32668 | -105.38161 | 37207 ft | 545 kts | 77° |
| 2026-04-30 13:59 | 38.34192 | -105.28739 | 37170 ft | 545 kts | 77° |
| 2026-04-30 13:59 | 38.35701 | -105.19358 | 37172 ft | 543 kts | 77° |
| 2026-04-30 14:00 | 38.37213 | -105.09914 | 37172 ft | 542 kts | 77° |
| 2026-04-30 14:00 | 38.39437 | -104.95925 | 37221 ft | 540 kts | 77° |
| 2026-04-30 14:01 | 38.40915 | -104.86558 | 37235 ft | 540 kts | 77° |
| 2026-04-30 14:01 | 38.42383 | -104.77213 | 37234 ft | 540 kts | 77° |
| 2026-04-30 14:02 | 38.43853 | -104.67802 | 37225 ft | 541 kts | 77° |
| 2026-04-30 14:02 | 38.45311 | -104.58412 | 37213 ft | 542 kts | 77° |
| 2026-04-30 14:03 | 38.46758 | -104.49041 | 37220 ft | 543 kts | 77° |
| 2026-04-30 14:03 | 38.48206 | -104.39617 | 37240 ft | 543 kts | 77° |
| 2026-04-30 14:04 | 38.49651 | -104.30154 | 37229 ft | 544 kts | 78° |
| 2026-04-30 14:04 | 38.51083 | -104.20720 | 37231 ft | 544 kts | 78° |
| 2026-04-30 14:05 | 38.52513 | -104.11251 | 37215 ft | 544 kts | 78° |
| 2026-04-30 14:05 | 38.53933 | -104.01796 | 37193 ft | 545 kts | 78° |
| 2026-04-30 14:06 | 38.56053 | -103.87569 | 37179 ft | 546 kts | 78° |
| 2026-04-30 14:07 | 38.58161 | -103.73302 | 37178 ft | 547 kts | 78° |
| 2026-04-30 14:08 | 38.60255 | -103.59002 | 37177 ft | 548 kts | 78° |
| 2026-04-30 14:08 | 38.62334 | -103.44678 | 37203 ft | 549 kts | 78° |
| 2026-04-30 14:09 | 38.63715 | -103.35097 | 37215 ft | 549 kts | 78° |
| 2026-04-30 14:10 | 38.65771 | -103.20712 | 37197 ft | 548 kts | 78° |
| 2026-04-30 14:10 | 38.67132 | -103.11121 | 37197 ft | 548 kts | 78° |
| 2026-04-30 14:11 | 38.68472 | -103.01617 | 37195 ft | 547 kts | 78° |
| 2026-04-30 14:11 | 38.69811 | -102.92062 | 37185 ft | 548 kts | 78° |
| 2026-04-30 14:12 | 38.71149 | -102.82455 | 37176 ft | 548 kts | 78° |
| 2026-04-30 14:12 | 38.72477 | -102.72865 | 37175 ft | 548 kts | 78° |
| 2026-04-30 14:13 | 38.73790 | -102.63318 | 37180 ft | 548 kts | 78° |
| 2026-04-30 14:13 | 38.75098 | -102.53742 | 37193 ft | 549 kts | 78° |
| 2026-04-30 14:14 | 38.76404 | -102.44128 | 37205 ft | 549 kts | 78° |
| 2026-04-30 14:14 | 38.77704 | -102.34497 | 37208 ft | 550 kts | 79° |
| 2026-04-30 14:15 | 38.79001 | -102.24823 | 37187 ft | 550 kts | 79° |
| 2026-04-30 14:15 | 38.80284 | -102.15186 | 37186 ft | 550 kts | 79° |
| 2026-04-30 14:16 | 38.81563 | -102.05529 | 37186 ft | 550 kts | 79° |
| 2026-04-30 14:16 | 38.82831 | -101.95879 | 37187 ft | 550 kts | 79° |
| 2026-04-30 14:17 | 38.84090 | -101.86241 | 37193 ft | 550 kts | 79° |
| 2026-04-30 14:17 | 38.85337 | -101.76636 | 37202 ft | 550 kts | 77° |
| 2026-04-30 14:18 | 38.86650 | -101.66993 | 37204 ft | 551 kts | 78° |
| 2026-04-30 14:18 | 38.88592 | -101.52459 | 37208 ft | 552 kts | 78° |
| 2026-04-30 14:19 | 38.90516 | -101.37912 | 37215 ft | 553 kts | 78° |
| 2026-04-30 14:20 | 38.91791 | -101.28188 | 37201 ft | 553 kts | 79° |
| 2026-04-30 14:20 | 38.93686 | -101.13619 | 37214 ft | 552 kts | 79° |
| 2026-04-30 14:21 | 38.94932 | -101.03955 | 37219 ft | 551 kts | 79° |
| 2026-04-30 14:22 | 38.96783 | -100.89478 | 37224 ft | 551 kts | 79° |
| 2026-04-30 14:22 | 38.98621 | -100.74955 | 37225 ft | 551 kts | 79° |
| 2026-04-30 14:23 | 39.01052 | -100.55519 | 37225 ft | 552 kts | 79° |
| 2026-04-30 14:24 | 39.02850 | -100.40957 | 37228 ft | 553 kts | 79° |
| 2026-04-30 14:25 | 39.05230 | -100.21456 | 37207 ft | 552 kts | 79° |
| 2026-04-30 14:26 | 39.06983 | -100.06900 | 37207 ft | 551 kts | 79° |
| 2026-04-30 14:27 | 39.08725 | -99.92279 | 37212 ft | 551 kts | 79° |
| 2026-04-30 14:27 | 39.09871 | -99.82579 | 37212 ft | 551 kts | 79° |
| 2026-04-30 14:28 | 39.11582 | -99.67951 | 37209 ft | 552 kts | 79° |
| 2026-04-30 14:28 | 39.12707 | -99.58241 | 37209 ft | 552 kts | 79° |
| 2026-04-30 14:29 | 39.14945 | -99.38718 | 37212 ft | 553 kts | 79° |
| 2026-04-30 14:31 | 39.17702 | -99.14245 | 37197 ft | 552 kts | 80° |
| 2026-04-30 14:31 | 39.19327 | -98.99586 | 37196 ft | 552 kts | 80° |
| 2026-04-30 14:32 | 39.20930 | -98.84959 | 37198 ft | 552 kts | 79° |
| 2026-04-30 14:33 | 39.21993 | -98.75163 | 37200 ft | 552 kts | 79° |
| 2026-04-30 14:33 | 39.23568 | -98.60510 | 37202 ft | 553 kts | 79° |
| 2026-04-30 14:34 | 39.24612 | -98.50682 | 37204 ft | 553 kts | 79° |
| 2026-04-30 14:34 | 39.25644 | -98.40906 | 37207 ft | 554 kts | 79° |
| 2026-04-30 14:35 | 39.27186 | -98.26132 | 37190 ft | 554 kts | 80° |
| 2026-04-30 14:36 | 39.28198 | -98.16328 | 37190 ft | 553 kts | 80° |
| 2026-04-30 14:36 | 39.29205 | -98.06503 | 37193 ft | 552 kts | 80° |
| 2026-04-30 14:37 | 39.30204 | -97.96668 | 37196 ft | 552 kts | 80° |
| 2026-04-30 14:37 | 39.31187 | -97.86897 | 37195 ft | 552 kts | 80° |
| 2026-04-30 14:38 | 39.32169 | -97.77060 | 37195 ft | 552 kts | 80° |
| 2026-04-30 14:38 | 39.33137 | -97.67278 | 37194 ft | 552 kts | 80° |
| 2026-04-30 14:39 | 39.34105 | -97.57408 | 37189 ft | 552 kts | 80° |
| 2026-04-30 14:39 | 39.35058 | -97.47608 | 37187 ft | 552 kts | 80° |
| 2026-04-30 14:40 | 39.36478 | -97.32837 | 37177 ft | 553 kts | 81° |
| 2026-04-30 14:40 | 39.37416 | -97.22966 | 37166 ft | 552 kts | 81° |
| 2026-04-30 14:41 | 39.38342 | -97.13136 | 37167 ft | 551 kts | 81° |
| 2026-04-30 14:41 | 39.39260 | -97.03300 | 37170 ft | 551 kts | 81° |
| 2026-04-30 14:42 | 39.40167 | -96.93484 | 37173 ft | 551 kts | 81° |
| 2026-04-30 14:42 | 39.41063 | -96.83701 | 37175 ft | 551 kts | 81° |
| 2026-04-30 14:43 | 39.41953 | -96.73887 | 37176 ft | 551 kts | 81° |
| 2026-04-30 14:43 | 39.42835 | -96.64072 | 37178 ft | 551 kts | 81° |
| 2026-04-30 14:44 | 39.43708 | -96.54260 | 37179 ft | 551 kts | 81° |
| 2026-04-30 14:44 | 39.44581 | -96.44357 | 37180 ft | 552 kts | 81° |
| 2026-04-30 14:45 | 39.45441 | -96.34499 | 37179 ft | 552 kts | 81° |
| 2026-04-30 14:45 | 39.46293 | -96.24644 | 37158 ft | 551 kts | 81° |
| 2026-04-30 14:46 | 39.47132 | -96.14830 | 37158 ft | 550 kts | 81° |
| 2026-04-30 14:46 | 39.47964 | -96.05005 | 37160 ft | 549 kts | 81° |
| 2026-04-30 14:47 | 39.48781 | -95.95259 | 37160 ft | 548 kts | 81° |
| 2026-04-30 14:47 | 39.49596 | -95.85428 | 37159 ft | 547 kts | 81° |
| 2026-04-30 14:48 | 39.50396 | -95.75693 | 37158 ft | 547 kts | 81° |
| 2026-04-30 14:48 | 39.51193 | -95.65878 | 37159 ft | 546 kts | 81° |
| 2026-04-30 14:49 | 39.51978 | -95.56119 | 37158 ft | 546 kts | 81° |
| 2026-04-30 14:49 | 39.52753 | -95.46374 | 37157 ft | 546 kts | 81° |
| 2026-04-30 14:50 | 39.53907 | -95.31669 | 37145 ft | 546 kts | 82° |
| 2026-04-30 14:51 | 39.55035 | -95.17048 | 37141 ft | 545 kts | 82° |
| 2026-04-30 14:52 | 39.56143 | -95.02447 | 37141 ft | 544 kts | 82° |
| 2026-04-30 14:52 | 39.57235 | -94.87807 | 37142 ft | 543 kts | 82° |
| 2026-04-30 14:53 | 39.58305 | -94.73219 | 37144 ft | 543 kts | 82° |
| 2026-04-30 14:54 | 39.59704 | -94.53763 | 37150 ft | 543 kts | 82° |
| 2026-04-30 14:55 | 39.60731 | -94.39163 | 37156 ft | 543 kts | 82° |
| 2026-04-30 14:56 | 39.62071 | -94.19717 | 37144 ft | 541 kts | 83° |
| 2026-04-30 14:57 | 39.63052 | -94.05160 | 37151 ft | 539 kts | 83° |
| 2026-04-30 14:58 | 39.64326 | -93.85843 | 37154 ft | 537 kts | 83° |
| 2026-04-30 14:58 | 39.65260 | -93.71362 | 37155 ft | 536 kts | 83° |
| 2026-04-30 15:00 | 39.66771 | -93.47292 | 37156 ft | 536 kts | 82° |
| 2026-04-30 15:01 | 39.67949 | -93.27959 | 37142 ft | 537 kts | 83° |
| 2026-04-30 15:01 | 39.68808 | -93.13497 | 37144 ft | 536 kts | 83° |
| 2026-04-30 15:02 | 39.69369 | -93.03899 | 37147 ft | 535 kts | 83° |
| 2026-04-30 15:03 | 39.70740 | -92.79824 | 37154 ft | 535 kts | 83° |
| 2026-04-30 15:04 | 39.72058 | -92.55790 | 37158 ft | 535 kts | 83° |
| 2026-04-30 15:06 | 39.73333 | -92.31647 | 37146 ft | 535 kts | 84° |
| 2026-04-30 15:07 | 39.74310 | -92.12431 | 37146 ft | 532 kts | 84° |
| 2026-04-30 15:08 | 39.75252 | -91.93293 | 37149 ft | 529 kts | 84° |
| 2026-04-30 15:09 | 39.76379 | -91.69506 | 37149 ft | 528 kts | 84° |
| 2026-04-30 15:10 | 39.77246 | -91.50477 | 37151 ft | 527 kts | 84° |
| 2026-04-30 15:11 | 39.78487 | -91.21918 | 37137 ft | 527 kts | 85° |
| 2026-04-30 15:13 | 39.79467 | -90.98149 | 37137 ft | 526 kts | 84° |
| 2026-04-30 15:14 | 39.80756 | -90.64864 | 37135 ft | 526 kts | 84° |
| 2026-04-30 15:17 | 39.82273 | -90.22107 | 37128 ft | 525 kts | 85° |
| 2026-04-30 15:19 | 39.83480 | -89.84396 | 37138 ft | 521 kts | 85° |